Time;durP1;ratioP1;P1;durP2;ratioP2;P2;SDS_P1;SDS_P2;PMS_P1;PMS_P2;Temp;Humidity;BMP_temperature;BMP_pressure;BME280_temperature;BME280_humidity;BME280_pressure;Samples;Min_cycle;Max_cycle;Signal;HPM_P1;HPM_P2
2023/08/30 00:01:01;;;;;;;;;;;;;;;22.95;100.00;98691.19;4993984;28;899;-65
2023/08/30 00:03:28;;;;;;;;;;;;;;;23.00;100.00;98687.56;4994032;28;816;-65
2023/08/30 00:05:55;;;;;;;;;;;;;;;23.08;100.00;98699.88;4993950;28;1894;-64
2023/08/30 00:08:22;;;;;;;;;;;;;;;23.14;100.00;98697.06;4993900;28;945;-65
2023/08/30 00:10:48;;;;;;;;;;;;;;;23.18;100.00;98700.38;4993934;28;879;-65
2023/08/30 00:13:15;;;;;;;;;;;;;;;23.20;100.00;98686.53;4993796;28;939;-64
2023/08/30 00:15:41;;;;;;;;;;;;;;;23.18;100.00;98694.75;4993870;28;824;-65
2023/08/30 00:18:09;;;;;;;;;;;;;;;23.16;100.00;98689.63;4993727;28;841;-65
2023/08/30 00:20:35;;;;;;;;;;;;;;;23.14;100.00;98691.41;4993617;28;916;-65
2023/08/30 00:23:05;;;;;;;;;;;;;;;23.08;100.00;98682.22;4993551;28;935;-66
2023/08/30 00:25:32;;;;;;;;;;;;;;;22.97;100.00;98685.78;4993560;28;1953;-65
2023/08/30 00:27:59;;;;;;;;;;;;;;;22.86;100.00;98680.94;4993560;28;849;-65
2023/08/30 00:30:25;;;;;;;;;;;;;;;22.73;100.00;98680.72;4993415;28;828;-64
2023/08/30 00:32:52;;;;;;;;;;;;;;;22.59;100.00;98674.06;4993524;28;816;-64
2023/08/30 00:35:19;;;;;;;;;;;;;;;22.47;100.00;98678.16;4993285;28;872;-65
2023/08/30 00:37:45;;;;;;;;;;;;;;;22.33;100.00;98683.53;4993150;28;911;-65
2023/08/30 00:40:12;;;;;;;;;;;;;;;22.22;100.00;98675.84;4992814;28;839;-65
2023/08/30 00:42:40;;;;;;;;;;;;;;;22.12;100.00;98674.50;4993222;28;962;-66
2023/08/30 00:45:07;;;;;;;;;;;;;;;22.07;100.00;98669.66;4992937;28;1977;-65
2023/08/30 00:47:35;;;;;;;;;;;;;;;22.04;100.00;98673.50;4993484;28;828;-65
2023/08/30 00:50:02;;;;;;;;;;;;;;;22.04;100.00;98679.13;4993057;28;939;-65
2023/08/30 00:52:29;;;;;;;;;;;;;;;22.01;100.00;98674.50;4993342;28;805;-65
2023/08/30 00:54:56;;;;;;;;;;;;;;;21.98;100.00;98673.50;4993317;28;844;-66
2023/08/30 00:57:23;;;;;;;;;;;;;;;21.96;100.00;98669.66;4993056;28;931;-65
2023/08/30 00:59:51;;;;;;;;;;;;;;;21.95;100.00;98671.66;4992847;28;879;-65
2023/08/30 01:02:17;;;;;;;;;;;;;;;21.96;100.00;98678.09;4992953;28;870;-65
2023/08/30 01:04:45;;;;;;;;;;;;;;;21.99;100.00;98675.00;4992841;28;1894;-65
2023/08/30 01:07:12;;;;;;;;;;;;;;;22.03;100.00;98669.13;4992873;28;826;-65
2023/08/30 01:09:39;;;;;;;;;;;;;;;22.06;100.00;98673.75;4992824;28;873;-66
2023/08/30 01:12:17;;;;;;;;;;;;;;;22.14;100.00;98679.66;4992631;28;1067;-65
2023/08/30 01:14:46;;;;;;;;;;;;;;;22.21;100.00;98677.09;4993019;28;833;-65
2023/08/30 01:17:15;;;;;;;;;;;;;;;22.25;100.00;98678.91;4992857;28;836;-65
2023/08/30 01:20:07;;;;;;;;;;;;;;;22.26;100.00;98669.22;4992531;28;919;-64
2023/08/30 01:22:51;;;;;;;;;;;;;;;22.31;100.00;98668.44;4992318;28;848;-65
2023/08/30 01:25:42;;;;;;;;;;;;;;;22.34;100.00;98661.78;4992662;28;1886;-65
2023/08/30 01:28:09;;;;;;;;;;;;;;;22.35;100.00;98669.72;4992502;28;825;-65
2023/08/30 01:30:37;;;;;;;;;;;;;;;22.34;100.00;98661.78;4992489;28;872;-65
2023/08/30 01:33:04;;;;;;;;;;;;;;;22.32;100.00;98664.31;4992596;28;832;-66
2023/08/30 01:35:35;;;;;;;;;;;;;;;22.28;100.00;98669.47;4974922;28;2229;-66
2023/08/30 01:38:03;;;;;;;;;;;;;;;22.24;100.00;98671.75;4992391;28;964;-65
2023/08/30 01:40:32;;;;;;;;;;;;;;;22.21;100.00;98674.28;4992461;28;866;-65
2023/08/30 01:42:59;;;;;;;;;;;;;;;22.20;100.00;98666.34;4992530;28;912;-64
2023/08/30 01:45:27;;;;;;;;;;;;;;;22.24;100.00;98669.72;5005867;28;1910;-65
2023/08/30 01:47:56;;;;;;;;;;;;;;;22.30;100.00;98673.31;5012050;28;851;-64
2023/08/30 01:50:23;;;;;;;;;;;;;;;22.33;100.00;98677.91;5013832;28;844;-65
2023/08/30 01:52:50;;;;;;;;;;;;;;;22.36;100.00;98673.28;5016065;28;875;-65
2023/08/30 01:55:18;;;;;;;;;;;;;;;22.40;100.00;98666.16;5015959;28;832;-65
2023/08/30 01:57:44;;;;;;;;;;;;;;;22.44;100.00;98665.88;5016284;28;872;-65
2023/08/30 02:00:12;;;;;;;;;;;;;;;22.46;100.00;98671.00;5015958;28;848;-66
2023/08/30 02:02:39;;;;;;;;;;;;;;;22.45;100.00;98667.41;5015986;28;828;-66
2023/08/30 02:05:06;;;;;;;;;;;;;;;22.42;100.00;98665.63;5015953;28;1983;-65
2023/08/30 02:07:37;;;;;;;;;;;;;;;22.46;100.00;98668.94;4998476;28;810;-65
2023/08/30 02:10:12;;;;;;;;;;;;;;;22.50;100.00;98668.69;5015803;28;890;-65
2023/08/30 02:12:46;;;;;;;;;;;;;;;22.54;100.00;98661.53;5015683;28;919;-66
2023/08/30 02:15:13;;;;;;;;;;;;;;;22.58;100.00;98661.28;5015707;28;808;-66
2023/08/30 02:17:40;;;;;;;;;;;;;;;22.61;100.00;98663.03;5015609;28;912;-66
2023/08/30 02:20:07;;;;;;;;;;;;;;;22.60;100.00;98665.09;5015613;28;801;-66
2023/08/30 02:22:34;;;;;;;;;;;;;;;22.59;100.00;98663.56;4997764;28;1367;-66
2023/08/30 02:25:04;;;;;;;;;;;;;;;22.60;100.00;98656.66;5015463;28;1949;-65
2023/08/30 02:27:34;;;;;;;;;;;;;;;22.67;100.00;98648.97;5015500;28;898;-65
2023/08/30 02:30:02;;;;;;;;;;;;;;;22.72;100.00;98653.81;5015375;28;966;-66
2023/08/30 02:32:29;;;;;;;;;;;;;;;22.71;100.00;98653.06;5015529;28;880;-65
2023/08/30 02:34:56;;;;;;;;;;;;;;;22.74;100.00;98654.84;5015218;28;943;-65
2023/08/30 02:37:24;;;;;;;;;;;;;;;22.77;100.00;98645.38;5015309;28;912;-65
2023/08/30 02:39:50;;;;;;;;;;;;;;;22.78;100.00;98643.31;5015215;28;868;-65
2023/08/30 02:42:17;;;;;;;;;;;;;;;22.77;100.00;98642.56;5015117;28;908;-65
2023/08/30 02:44:44;;;;;;;;;;;;;;;22.75;100.00;98644.34;5014769;28;2047;-65
2023/08/30 02:47:11;;;;;;;;;;;;;;;22.72;100.00;98634.09;5015113;28;891;-65
2023/08/30 02:49:38;;;;;;;;;;;;;;;22.74;100.00;98637.19;5014943;28;947;-65
2023/08/30 02:52:05;;;;;;;;;;;;;;;22.74;100.00;98643.56;5015049;28;836;-65
2023/08/30 02:54:32;;;;;;;;;;;;;;;22.73;100.00;98642.03;5015178;28;824;-65
2023/08/30 02:56:58;;;;;;;;;;;;;;;22.69;100.00;98647.16;5014872;28;833;-65
2023/08/30 02:59:25;;;;;;;;;;;;;;;22.60;100.00;98642.56;5014844;28;868;-65
2023/08/30 03:01:51;;;;;;;;;;;;;;;22.52;100.00;98635.16;5013933;28;951;-65
2023/08/30 03:04:18;;;;;;;;;;;;;;;22.45;100.00;98638.47;5014833;28;813;-65
2023/08/30 03:06:45;;;;;;;;;;;;;;;22.36;100.00;98640.28;5014748;28;1885;-65
2023/08/30 03:09:12;;;;;;;;;;;;;;;22.28;100.00;98635.69;5014654;28;899;-65
2023/08/30 03:11:39;;;;;;;;;;;;;;;22.22;100.00;98635.66;5014687;28;888;-66
2023/08/30 03:14:05;;;;;;;;;;;;;;;22.18;100.00;98641.53;5014529;28;829;-65
2023/08/30 03:16:32;;;;;;;;;;;;;;;22.18;100.00;98641.53;5014629;28;821;-65
2023/08/30 03:19:00;;;;;;;;;;;;;;;22.20;100.00;98646.66;5014723;28;821;-65
2023/08/30 03:21:27;;;;;;;;;;;;;;;22.13;100.00;98642.31;5014324;28;904;-65
2023/08/30 03:23:54;;;;;;;;;;;;;;;22.10;100.00;98640.50;5014447;28;943;-65
2023/08/30 03:26:20;;;;;;;;;;;;;;;22.02;100.00;98647.94;5014215;28;1899;-65
2023/08/30 03:28:47;;;;;;;;;;;;;;;21.95;100.00;98649.16;5014428;28;883;-65
2023/08/30 03:31:15;;;;;;;;;;;;;;;21.90;100.00;98655.56;5014372;28;852;-65
2023/08/30 03:33:41;;;;;;;;;;;;;;;21.87;100.00;98650.19;5014334;28;800;-65
2023/08/30 03:36:10;;;;;;;;;;;;;;;21.86;100.00;98660.66;5014263;28;867;-66
2023/08/30 03:38:37;;;;;;;;;;;;;;;21.88;100.00;98654.53;5014149;28;836;-66
2023/08/30 03:41:04;;;;;;;;;;;;;;;21.89;100.00;98654.03;5014134;28;816;-66
2023/08/30 03:43:32;;;;;;;;;;;;;;;21.92;100.00;98655.81;5014305;28;891;-65
2023/08/30 03:45:59;;;;;;;;;;;;;;;21.93;100.00;98662.22;5013831;28;1910;-65
2023/08/30 03:48:26;;;;;;;;;;;;;;;21.94;100.00;98669.38;5014044;28;899;-65
2023/08/30 03:50:54;;;;;;;;;;;;;;;21.96;100.00;98672.47;5013916;28;900;-65
2023/08/30 03:53:21;;;;;;;;;;;;;;;22.02;100.00;98674.00;5013733;28;824;-65
2023/08/30 03:55:47;;;;;;;;;;;;;;;22.13;100.00;98687.31;5013805;28;821;-65
2023/08/30 03:58:14;;;;;;;;;;;;;;;22.24;100.00;98683.78;5013742;28;907;-65
2023/08/30 04:00:41;;;;;;;;;;;;;;;22.35;100.00;98680.97;5013724;28;841;-65
2023/08/30 04:03:09;;;;;;;;;;;;;;;22.45;100.00;98689.94;5013771;28;832;-65
2023/08/30 04:05:36;;;;;;;;;;;;;;;22.53;100.00;98693.78;5013645;28;1910;-66
2023/08/30 04:08:04;;;;;;;;;;;;;;;22.59;100.00;98694.53;5013466;28;960;-66
2023/08/30 04:10:40;;;;;;;;;;;;;;;22.66;100.00;98696.09;5013890;28;883;-65
2023/08/30 04:13:07;;;;;;;;;;;;;;;22.83;100.00;98701.72;5013462;28;880;-65
2023/08/30 04:15:34;;;;;;;;;;;;;;;23.04;100.00;98705.00;5013454;28;805;-65
2023/08/30 04:18:02;;;;;;;;;;;;;;;23.13;100.00;98701.16;5013428;28;892;-65
2023/08/30 04:20:29;;;;;;;;;;;;;;;23.16;100.00;98700.91;5013297;28;885;-65
2023/08/30 04:22:56;;;;;;;;;;;;;;;23.30;100.00;98696.25;5013551;28;943;-65
2023/08/30 04:25:23;;;;;;;;;;;;;;;23.46;100.00;98696.72;4995484;28;1941;-65
2023/08/30 04:27:50;;;;;;;;;;;;;;;23.49;100.00;98704.88;5013269;28;808;-65
2023/08/30 04:30:17;;;;;;;;;;;;;;;23.46;100.00;98697.47;5013152;28;864;-66
2023/08/30 04:32:44;;;;;;;;;;;;;;;23.40;100.00;98699.53;5013111;28;887;-66
2023/08/30 04:35:10;;;;;;;;;;;;;;;23.35;100.00;98708.78;5013246;28;829;-66
2023/08/30 04:37:39;;;;;;;;;;;;;;;23.35;100.00;98708.78;5013371;28;821;-66
2023/08/30 04:40:11;;;;;;;;;;;;;;;23.44;100.00;98703.63;5013244;28;927;-66
2023/08/30 04:42:41;;;;;;;;;;;;;;;23.55;100.00;98697.16;4995347;28;1644;-67
2023/08/30 04:45:08;;;;;;;;;;;;;;;23.67;100.00;98694.31;5012644;28;1973;-67
2023/08/30 04:47:34;;;;;;;;;;;;;;;23.66;100.00;98696.34;5012926;28;908;-66
2023/08/30 04:50:01;;;;;;;;;;;;;;;23.59;100.00;98700.47;5012807;28;832;-65
2023/08/30 04:52:28;;;;;;;;;;;;;;;23.58;100.00;98690.50;5012804;28;797;-65
2023/08/30 04:54:55;;;;;;;;;;;;;;;23.66;100.00;98702.00;4994958;28;1497;-65
2023/08/30 04:57:22;;;;;;;;;;;;;;;23.79;100.00;98690.16;5012755;28;868;-66
2023/08/30 04:59:49;;;;;;;;;;;;;;;24.03;100.00;98692.34;5012748;28;836;-65
2023/08/30 05:02:15;;;;;;;;;;;;;;;24.29;100.00;98702.44;5012570;28;915;-66
2023/08/30 05:04:42;;;;;;;;;;;;;;;24.32;100.00;98698.56;5012465;28;1913;-65
2023/08/30 05:07:09;;;;;;;;;;;;;;;24.22;100.00;98698.91;5012607;28;895;-65
2023/08/30 05:09:35;;;;;;;;;;;;;;;24.15;100.00;98707.16;5012540;28;840;-65
2023/08/30 05:12:02;;;;;;;;;;;;;;;24.14;100.00;98712.03;5012559;28;860;-65
2023/08/30 05:14:29;;;;;;;;;;;;;;;24.29;100.00;98711.69;4994805;28;1276;-65
2023/08/30 05:16:56;;;;;;;;;;;;;;;24.61;100.00;98711.97;5012526;28;979;-65
2023/08/30 05:19:23;;;;;;;;;;;;;;;24.95;100.00;98714.50;5012390;28;821;-65
2023/08/30 05:21:54;;;;;;;;;;;;;;;25.30;100.00;98715.72;5012518;28;825;-65
2023/08/30 05:24:22;;;;;;;;;;;;;;;25.75;100.00;98717.25;5011820;28;926;-66
2023/08/30 05:26:49;;;;;;;;;;;;;;;26.16;100.00;98716.19;5012407;28;1894;-66
2023/08/30 05:29:16;;;;;;;;;;;;;;;26.30;100.00;98717.03;5012268;28;832;-66
2023/08/30 05:31:43;;;;;;;;;;;;;;;26.41;100.00;98722.53;5012235;28;873;-66
2023/08/30 05:34:10;;;;;;;;;;;;;;;26.56;100.00;98717.16;5012178;28;868;-67
2023/08/30 05:36:37;;;;;;;;;;;;;;;26.66;100.00;98723.94;5012211;28;848;-65
2023/08/30 05:39:04;;;;;;;;;;;;;;;27.04;100.00;98723.06;5012199;28;812;-66
2023/08/30 05:41:31;;;;;;;;;;;;;;;27.23;100.00;98728.69;5012238;28;906;-66
2023/08/30 05:43:56;;;;;;;;;;;;;;;27.46;100.00;98726.94;5012152;28;1437;-66
2023/08/30 05:46:24;;;;;;;;;;;;;;;27.80;100.00;98736.81;5010731;28;1914;-66
2023/08/30 05:48:50;;;;;;;;;;;;;;;27.82;100.00;98740.63;5012043;28;833;-66
2023/08/30 05:51:17;;;;;;;;;;;;;;;27.65;100.00;98743.84;5011984;28;883;-67
2023/08/30 05:53:44;;;;;;;;;;;;;;;27.53;100.00;98745.38;5011936;28;875;-66
2023/08/30 05:56:10;;;;;;;;;;;;;;;27.56;100.00;98741.44;5012204;28;860;-67
2023/08/30 05:58:38;;;;;;;;;;;;;;;27.52;100.00;98738.16;5011950;28;895;-66
2023/08/30 06:01:06;;;;;;;;;;;;;;;27.47;100.00;98742.63;5011911;28;821;-65
2023/08/30 06:03:33;;;;;;;;;;;;;;;27.59;100.00;98742.41;5011805;28;876;-66
2023/08/30 06:05:59;;;;;;;;;;;;;;;28.17;100.00;98744.31;5011855;28;1951;-65
2023/08/30 06:08:25;;;;;;;;;;;;;;;29.11;100.00;98748.28;5011835;28;836;-66
2023/08/30 06:10:52;;;;;;;;;;;;;;;29.33;100.00;98742.56;5011766;28;1078;-66
2023/08/30 06:13:19;;;;;;;;;;;;;;;29.88;100.00;98743.06;5011807;28;995;-67
2023/08/30 06:15:50;;;;;;;;;;;;;;;29.76;100.00;98735.44;5011815;28;856;-67
2023/08/30 06:18:17;;;;;;;;;;;;;;;30.29;100.00;98740.59;5011706;28;911;-67
2023/08/30 06:20:44;;;;;;;;;;;;;;;31.25;100.00;98740.31;5011727;28;825;-66
2023/08/30 06:23:11;;;;;;;;;;;;;;;31.94;100.00;98745.84;5011893;28;876;-66
2023/08/30 06:25:37;;;;;;;;;;;;;;;31.90;100.00;98746.25;5011527;28;1953;-66
2023/08/30 06:28:05;;;;;;;;;;;;;;;31.11;100.00;98742.59;5011710;28;880;-66
2023/08/30 06:30:31;;;;;;;;;;;;;;;29.97;100.00;98738.19;5011691;28;887;-66
2023/08/30 06:32:58;;;;;;;;;;;;;;;29.43;100.00;98747.19;5011590;28;868;-66
2023/08/30 06:35:25;;;;;;;;;;;;;;;29.40;100.00;98731.22;5011787;28;812;-68
2023/08/30 06:37:52;;;;;;;;;;;;;;;29.34;100.00;98732.69;5013997;28;900;-67
2023/08/30 06:40:19;;;;;;;;;;;;;;;29.25;100.00;98729.06;5015204;28;860;-67
2023/08/30 06:42:46;;;;;;;;;;;;;;;29.43;100.00;98735.81;5015316;28;967;-66
2023/08/30 06:45:13;;;;;;;;;;;;;;;30.15;100.00;98742.03;5014780;28;1910;-66
2023/08/30 06:47:40;;;;;;;;;;;;;;;30.94;100.00;98737.47;5015189;28;907;-66
2023/08/30 06:50:09;;;;;;;;;;;;;;;31.27;100.00;98740.50;5015099;28;849;-66
2023/08/30 06:52:36;;;;;;;;;;;;;;;31.33;100.00;98741.06;5015254;28;841;-66
2023/08/30 06:55:03;;;;;;;;;;;;;;;31.63;100.00;98740.25;5014910;28;817;-66
2023/08/30 06:57:30;;;;;;;;;;;;;;;31.96;100.00;98740.31;5014989;28;858;-67
2023/08/30 06:59:58;;;;;;;;;;;;;;;31.99;100.00;98744.16;5014927;28;833;-67
2023/08/30 07:02:26;;;;;;;;;;;;;;;31.28;100.00;98747.69;5014758;28;893;-66
2023/08/30 07:04:53;;;;;;;;;;;;;;;30.48;100.00;98754.50;4997119;28;1953;-67
2023/08/30 07:07:19;;;;;;;;;;;;;;;29.98;100.00;98751.09;5014952;28;899;-66
2023/08/30 07:09:46;;;;;;;;;;;;;;;30.03;100.00;98750.94;5014793;28;840;-66
2023/08/30 07:12:13;;;;;;;;;;;;;;;29.98;100.00;98754.72;5014649;28;829;-67
2023/08/30 07:14:39;;;;;;;;;;;;;;;29.82;100.00;98750.28;4996986;28;1150;-66
2023/08/30 07:17:07;;;;;;;;;;;;;;;29.74;100.00;98746.63;5014389;28;903;-66
2023/08/30 07:19:33;;;;;;;;;;;;;;;29.59;100.00;98752.97;5024697;28;879;-66
2023/08/30 07:22:00;;;;;;;;;;;;;;;30.54;100.00;98746.53;5034165;28;884;-67
2023/08/30 07:24:27;;;;;;;;;;;;;;;31.81;100.00;98746.84;5034157;28;903;-67
2023/08/30 07:26:54;;;;;;;;;;;;;;;32.62;100.00;98748.97;5034072;28;1947;-67
2023/08/30 07:29:21;;;;;;;;;;;;;;;33.13;100.00;98754.13;5034329;28;860;-66
2023/08/30 07:31:47;;;;;;;;;;;;;;;33.23;100.00;98754.22;5034091;28;859;-66
2023/08/30 07:34:14;;;;;;;;;;;;;;;33.25;99.98;98754.41;5034015;28;951;-66
2023/08/30 07:36:40;;;;;;;;;;;;;;;33.13;98.04;98754.13;5033975;28;853;-68
2023/08/30 07:39:06;;;;;;;;;;;;;;;32.91;98.98;98752.19;5034021;28;832;-67
2023/08/30 07:41:33;;;;;;;;;;;;;;;33.08;97.90;98740.81;5033898;28;836;-66
2023/08/30 07:43:59;;;;;;;;;;;;;;;33.32;95.88;98733.50;5033429;28;1564;-66
2023/08/30 07:46:26;;;;;;;;;;;;;;;32.86;97.53;98738.88;5033789;28;1902;-67
2023/08/30 07:48:51;;;;;;;;;;;;;;;32.23;100.00;98739.84;5033355;28;828;-68
2023/08/30 07:51:18;;;;;;;;;;;;;;;32.54;98.96;98740.47;5033694;28;832;-67
2023/08/30 07:53:45;;;;;;;;;;;;;;;32.95;95.87;98747.56;5033516;28;876;-67
2023/08/30 07:56:11;;;;;;;;;;;;;;;33.03;95.16;98747.53;5033691;28;832;-69
2023/08/30 07:58:40;;;;;;;;;;;;;;;32.74;95.42;98747.16;5015789;28;1317;-67
2023/08/30 08:01:08;;;;;;;;;;;;;;;32.51;97.17;98745.19;5033536;28;868;-67
2023/08/30 08:03:34;;;;;;;;;;;;;;;32.63;95.29;98747.63;5033521;28;835;-66
2023/08/30 08:06:01;;;;;;;;;;;;;;;33.02;93.61;98743.13;5033469;28;1890;-68
2023/08/30 08:08:28;;;;;;;;;;;;;;;32.52;96.00;98732.44;5033625;28;868;-67
2023/08/30 08:10:55;;;;;;;;;;;;;;;32.13;97.31;98731.91;5033568;28;880;-68
2023/08/30 08:13:22;;;;;;;;;;;;;;;32.81;96.08;98739.88;5033274;28;971;-68
2023/08/30 08:15:48;;;;;;;;;;;;;;;34.49;88.85;98730.81;5033334;28;856;-67
2023/08/30 08:18:15;;;;;;;;;;;;;;;35.20;79.71;98727.00;5033204;28;820;-69
2023/08/30 08:20:43;;;;;;;;;;;;;;;34.49;74.86;98737.28;5033059;28;890;-67
2023/08/30 08:23:10;;;;;;;;;;;;;;;33.32;75.90;98733.50;5033040;28;837;-68
2023/08/30 08:25:37;;;;;;;;;;;;;;;33.43;74.57;98732.25;5032916;28;1950;-68
2023/08/30 08:28:03;;;;;;;;;;;;;;;34.72;68.35;98724.75;5033026;28;829;-68
2023/08/30 08:30:30;;;;;;;;;;;;;;;35.04;65.22;98737.22;5033029;28;880;-68
2023/08/30 08:32:57;;;;;;;;;;;;;;;34.96;64.71;98728.75;5032928;28;834;-69
2023/08/30 08:35:24;;;;;;;;;;;;;;;34.91;64.02;98729.78;5032900;28;884;-68
2023/08/30 08:37:52;;;;;;;;;;;;;;;33.88;66.25;98730.25;5032770;28;828;-68
2023/08/30 08:40:19;;;;;;;;;;;;;;;33.04;69.14;98728.22;5032807;28;900;-69
2023/08/30 08:42:45;;;;;;;;;;;;;;;32.59;71.13;98718.69;5032712;28;1034;-68
2023/08/30 08:45:12;;;;;;;;;;;;;;;32.61;71.46;98719.63;5032563;28;1906;-68
2023/08/30 08:47:39;;;;;;;;;;;;;;;33.75;67.90;98713.41;5032565;28;895;-68
2023/08/30 08:50:06;;;;;;;;;;;;;;;34.57;64.83;98717.84;5032646;28;821;-69
2023/08/30 08:52:33;;;;;;;;;;;;;;;34.96;63.10;98714.38;5032382;28;864;-68
2023/08/30 08:55:01;;;;;;;;;;;;;;;35.02;62.33;98720.59;5032662;28;821;-68
2023/08/30 08:57:33;;;;;;;;;;;;;;;34.17;64.07;98721.88;5032426;28;828;-69
2023/08/30 09:00:00;;;;;;;;;;;;;;;34.20;65.32;98719.91;5031774;28;903;-68
2023/08/30 09:02:28;;;;;;;;;;;;;;;34.38;64.64;98717.03;5032547;28;845;-69
2023/08/30 09:04:55;;;;;;;;;;;;;;;34.98;63.43;98717.41;5032586;28;1890;-70
2023/08/30 09:07:24;;;;;;;;;;;;;;;35.20;63.72;98706.91;5032296;28;891;-68
2023/08/30 09:09:52;;;;;;;;;;;;;;;35.82;61.66;98706.47;5032304;28;886;-68
2023/08/30 09:12:21;;;;;;;;;;;;;;;36.03;60.93;98711.59;5032139;28;902;-67
2023/08/30 09:14:55;;;;;;;;;;;;;;;35.86;60.63;98708.91;5014740;28;1335;-68
2023/08/30 09:17:22;;;;;;;;;;;;;;;35.83;60.04;98708.00;5032321;28;828;-70
2023/08/30 09:19:48;;;;;;;;;;;;;;;35.83;59.92;98710.09;5032291;28;1207;-65
2023/08/30 09:22:15;;;;;;;;;;;;;;;36.01;59.73;98699.22;5032139;28;828;-67
2023/08/30 09:24:42;;;;;;;;;;;;;;;35.82;60.72;98700.75;5032059;28;1262;-66
2023/08/30 09:27:08;;;;;;;;;;;;;;;35.99;60.12;98696.94;5031943;28;1890;-69
2023/08/30 09:29:35;;;;;;;;;;;;;;;35.82;59.26;98700.75;5031897;28;824;-72
2023/08/30 09:32:02;;;;;;;;;;;;;;;35.33;60.38;98697.09;5031908;28;848;-66
2023/08/30 09:34:29;;;;;;;;;;;;;;;35.52;60.90;98704.97;5031866;28;931;-68
2023/08/30 09:36:56;;;;;;;;;;;;;;;35.54;61.25;98708.75;5031840;28;930;-70
2023/08/30 09:39:23;;;;;;;;;;;;;;;35.13;61.98;98705.69;5031852;28;868;-66
2023/08/30 09:41:50;;;;;;;;;;;;;;;34.39;63.62;98695.56;5031709;28;809;-67
2023/08/30 09:44:20;;;;;;;;;;;;;;;33.89;65.12;98683.06;5031728;28;1214;-67
2023/08/30 09:46:50;;;;;;;;;;;;;;;33.49;65.95;98694.78;5031867;28;1977;-68
2023/08/30 09:49:18;;;;;;;;;;;;;;;33.84;65.53;98686.94;5031707;28;828;-68
2023/08/30 09:51:46;;;;;;;;;;;;;;;33.96;64.78;98678.56;5031508;28;907;-68
2023/08/30 09:54:17;;;;;;;;;;;;;;;33.59;65.93;98684.19;5031683;28;853;-67
2023/08/30 09:56:44;;;;;;;;;;;;;;;33.69;64.84;98682.19;5031542;28;820;-68
2023/08/30 09:59:12;;;;;;;;;;;;;;;34.32;63.46;98680.00;5031766;28;887;-68
2023/08/30 10:01:39;;;;;;;;;;;;;;;35.01;61.68;98678.88;5031549;28;888;-66
2023/08/30 10:04:07;;;;;;;;;;;;;;;35.56;59.76;98679.41;5031580;28;891;-69
2023/08/30 10:06:35;;;;;;;;;;;;;;;35.67;58.22;98678.06;5031387;28;1890;-69
2023/08/30 10:09:03;;;;;;;;;;;;;;;35.44;57.19;98681.38;5031595;28;833;-73
2023/08/30 10:42:55;;;;;;;;;;;;;;;35.48;53.24;98675.94;6027895;23;1742;-58
2023/08/30 10:45:23;;;;;;;;;;;;;;;35.42;53.90;98675.47;4995524;28;1910;-58
2023/08/30 10:47:54;;;;;;;;;;;;;;;35.57;53.94;98675.16;4995547;28;903;-58
2023/08/30 10:50:27;;;;;;;;;;;;;;;35.76;53.58;98672.31;4995552;28;927;-58
2023/08/30 10:52:57;;;;;;;;;;;;;;;35.95;51.61;98668.66;4995513;28;832;-58
2023/08/30 10:55:25;;;;;;;;;;;;;;;35.81;51.99;98664.75;4995586;28;829;-59
2023/08/30 10:58:02;;;;;;;;;;;;;;;35.74;51.79;98668.53;5008157;28;1251;-58
2023/08/30 11:00:29;;;;;;;;;;;;;;;35.60;51.38;98664.59;5014951;28;839;-58
2023/08/30 11:02:56;;;;;;;;;;;;;;;35.63;51.34;98666.25;5015174;28;820;-58
2023/08/30 11:05:23;;;;;;;;;;;;;;;35.90;50.84;98660.34;5014770;28;1898;-59
2023/08/30 11:07:50;;;;;;;;;;;;;;;35.77;50.96;98667.31;5014833;28;839;-58
2023/08/30 11:10:18;;;;;;;;;;;;;;;35.73;51.18;98669.91;5014668;28;861;-58
2023/08/30 11:12:45;;;;;;;;;;;;;;;35.97;49.82;98668.78;4997266;28;900;-58
2023/08/30 11:15:15;;;;;;;;;;;;;;;36.41;49.03;98657.50;5014915;28;819;-58
2023/08/30 11:17:42;;;;;;;;;;;;;;;36.27;48.43;98660.09;5014697;28;959;-58
2023/08/30 11:20:11;;;;;;;;;;;;;;;36.03;46.58;98664.84;5014464;28;868;-58
2023/08/30 11:22:42;;;;;;;;;;;;;;;36.25;45.92;98649.19;5013840;28;863;-58
2023/08/30 11:25:10;;;;;;;;;;;;;;;36.51;42.91;98653.19;5014358;28;1949;-58
2023/08/30 11:27:38;;;;;;;;;;;;;;;36.85;41.14;98648.34;5014451;28;836;-58
2023/08/30 11:30:06;;;;;;;;;;;;;;;36.89;40.02;98648.59;5014446;28;889;-58
2023/08/30 11:32:36;;;;;;;;;;;;;;;36.90;39.41;98637.88;5014437;28;820;-58
2023/08/30 11:35:03;;;;;;;;;;;;;;;36.84;39.26;98640.31;5014152;28;928;-58
2023/08/30 11:37:29;;;;;;;;;;;;;;;36.91;38.99;98642.97;5014117;28;915;-58
2023/08/30 11:39:56;;;;;;;;;;;;;;;37.00;38.17;98641.44;5014401;28;875;-59
2023/08/30 11:42:22;;;;;;;;;;;;;;;36.89;38.11;98637.09;5013733;28;982;-58
2023/08/30 11:44:50;;;;;;;;;;;;;;;36.81;37.74;98630.81;5013946;28;1239;-58
2023/08/30 11:47:20;;;;;;;;;;;;;;;37.19;36.61;98620.38;5014065;28;1906;-58
2023/08/30 11:49:49;;;;;;;;;;;;;;;37.52;35.87;98622.53;5013976;28;813;-59
2023/08/30 11:52:17;;;;;;;;;;;;;;;37.76;34.63;98614.72;5014160;28;844;-58
2023/08/30 11:54:44;;;;;;;;;;;;;;;38.14;33.11;98618.59;5013885;28;854;-59
2023/08/30 11:57:12;;;;;;;;;;;;;;;37.80;32.02;98612.84;4996542;28;871;-58
2023/08/30 11:59:39;;;;;;;;;;;;;;;37.50;33.32;98614.50;5013687;28;840;-58
2023/08/30 12:02:07;;;;;;;;;;;;;;;37.48;33.50;98611.50;5013811;28;860;-59
2023/08/30 12:04:43;;;;;;;;;;;;;;;37.49;33.43;98615.13;5013597;28;869;-58
2023/08/30 12:07:10;;;;;;;;;;;;;;;37.53;32.76;98598.84;5013745;28;1890;-58
2023/08/30 12:09:37;;;;;;;;;;;;;;;37.92;31.81;98603.50;5013913;28;818;-58
2023/08/30 12:12:10;;;;;;;;;;;;;;;38.05;30.95;98593.50;5013584;28;836;-58
2023/08/30 12:14:37;;;;;;;;;;;;;;;38.18;31.39;98602.28;5013511;28;821;-58
2023/08/30 12:17:04;;;;;;;;;;;;;;;38.08;31.13;98598.75;5013474;28;793;-58
2023/08/30 12:19:32;;;;;;;;;;;;;;;38.04;30.84;98597.75;5013384;28;879;-58
2023/08/30 12:22:07;;;;;;;;;;;;;;;38.40;30.40;98600.00;5013417;28;796;-58
2023/08/30 12:24:43;;;;;;;;;;;;;;;38.57;29.98;98586.59;5013686;28;883;-58
2023/08/30 12:27:10;;;;;;;;;;;;;;;38.24;29.74;98589.59;5013547;28;1886;-58
2023/08/30 12:29:36;;;;;;;;;;;;;;;38.13;29.20;98585.34;5013353;28;824;-58
2023/08/30 12:32:03;;;;;;;;;;;;;;;37.91;29.25;98573.13;5013302;28;908;-57
2023/08/30 12:34:30;;;;;;;;;;;;;;;38.27;29.24;98579.72;5012167;28;951;-58
2023/08/30 12:36:57;;;;;;;;;;;;;;;38.42;28.05;98569.78;5013349;28;871;-58
2023/08/30 12:39:23;;;;;;;;;;;;;;;38.30;28.44;98570.56;5013252;28;858;-58
2023/08/30 12:41:50;;;;;;;;;;;;;;;38.33;28.76;98554.88;5013277;28;957;-58
2023/08/30 12:44:17;;;;;;;;;;;;;;;38.14;28.96;98558.00;5013088;28;1301;-58
2023/08/30 12:46:44;;;;;;;;;;;;;;;38.46;28.76;98558.50;5013148;28;1917;-57
2023/08/30 12:49:11;;;;;;;;;;;;;;;38.64;28.56;98556.72;5013110;28;883;-58
2023/08/30 12:51:37;;;;;;;;;;;;;;;39.10;28.17;98555.09;5013428;28;828;-58
2023/08/30 12:54:04;;;;;;;;;;;;;;;39.76;27.83;98550.13;5013325;28;854;-59
2023/08/30 12:56:31;;;;;;;;;;;;;;;39.74;27.16;98547.84;5012821;28;1340;-58
2023/08/30 12:58:58;;;;;;;;;;;;;;;39.73;27.13;98557.94;5012788;28;1189;-58
2023/08/30 13:01:24;;;;;;;;;;;;;;;40.15;26.76;98549.34;5012715;28;1218;-58
2023/08/30 13:03:51;;;;;;;;;;;;;;;40.46;26.67;98550.94;5012939;28;847;-58
2023/08/30 13:06:18;;;;;;;;;;;;;;;40.40;27.46;98546.34;5012771;28;1953;-59
2023/08/30 13:08:45;;;;;;;;;;;;;;;40.44;27.75;98548.72;5012794;28;837;-58
2023/08/30 13:11:11;;;;;;;;;;;;;;;40.35;28.08;98546.78;5012468;28;856;-58
2023/08/30 13:13:38;;;;;;;;;;;;;;;40.37;27.83;98544.75;5012433;28;825;-58
2023/08/30 13:16:04;;;;;;;;;;;;;;;40.09;27.94;98535.28;4994797;28;907;-58
2023/08/30 13:18:31;;;;;;;;;;;;;;;39.84;29.14;98529.56;5012404;28;884;-58
2023/08/30 13:20:58;;;;;;;;;;;;;;;40.05;29.03;98532.16;5012372;28;848;-58
2023/08/30 13:23:24;;;;;;;;;;;;;;;39.66;29.77;98535.09;5012287;28;891;-59
2023/08/30 13:25:51;;;;;;;;;;;;;;;39.37;30.42;98540.03;5012391;28;1894;-58
2023/08/30 13:28:18;;;;;;;;;;;;;;;39.24;30.81;98548.63;5012477;28;838;-58
2023/08/30 13:30:45;;;;;;;;;;;;;;;38.80;31.45;98540.34;5012299;28;820;-58
2023/08/30 13:33:12;;;;;;;;;;;;;;;37.34;34.24;98527.78;5012502;28;961;-57